Time;durP1;ratioP1;P1;durP2;ratioP2;P2;SDS_P1;SDS_P2;PMS_P1;PMS_P2;Temp;Humidity;BMP_temperature;BMP_pressure;BME280_temperature;BME280_humidity;BME280_pressure;Samples;Min_cycle;Max_cycle;Signal;HPM_P1;HPM_P2
2022/05/24 00:01:03;;;;;;;28.07;5.40;;;17.80;42.50;;;;;;5024977;28;20533;-61
2022/05/24 00:03:30;;;;;;;26.43;4.73;;;17.80;42.70;;;;;;5025385;28;20463;-60
2022/05/24 00:05:56;;;;;;;29.70;5.40;;;17.80;42.60;;;;;;5024229;28;20451;-61
2022/05/24 00:08:23;;;;;;;27.10;4.93;;;17.80;42.50;;;;;;5023249;28;20462;-59
2022/05/24 00:10:50;;;;;;;28.50;4.93;;;17.80;42.50;;;;;;5024123;28;20480;-60
2022/05/24 00:13:18;;;;;;;26.80;4.90;;;17.80;42.40;;;;;;5025352;28;20965;-60
2022/05/24 00:15:45;;;;;;;28.30;5.20;;;17.80;42.30;;;;;;5027684;28;20470;-60
2022/05/24 00:18:14;;;;;;;27.50;5.60;;;17.80;42.80;;;;;;5023939;28;20468;-60
2022/05/24 00:20:44;;;;;;;28.27;5.13;;;17.80;42.80;;;;;;5027175;28;20490;-60
2022/05/24 00:23:12;;;;;;;31.97;5.20;;;17.80;43.10;;;;;;5018987;28;20451;-60
2022/05/24 00:25:43;;;;;;;27.20;5.30;;;17.80;42.70;;;;;;5026485;28;20455;-60
2022/05/24 00:28:11;;;;;;;27.20;4.83;;;17.80;42.50;;;;;;5025589;28;20461;-62
2022/05/24 00:30:40;;;;;;;29.17;5.40;;;17.80;42.90;;;;;;5025137;28;20493;-58
2022/05/24 00:33:06;;;;;;;27.07;5.20;;;17.80;43.50;;;;;;5021835;28;20497;-58
2022/05/24 00:35:34;;;;;;;27.80;5.40;;;17.80;43.30;;;;;;5025113;28;20474;-59
2022/05/24 00:38:01;;;;;;;28.53;5.63;;;17.80;43.60;;;;;;5023361;28;21251;-61
2022/05/24 00:40:43;;;;;;;38.50;5.70;;;17.80;43.90;;;;;;5022395;28;20482;-59
2022/05/24 00:43:14;;;;;;;27.30;5.17;;;17.80;43.40;;;;;;5024255;28;20970;-60
2022/05/24 00:45:47;;;;;;;27.70;5.20;;;17.80;43.90;;;;;;5028834;28;20451;-60
2022/05/24 00:48:22;;;;;;;27.90;4.77;;;17.80;43.50;;;;;;5025033;28;20455;-62
2022/05/24 00:50:51;;;;;;;28.77;5.97;;;17.80;43.70;;;;;;5030533;28;20492;-62
2022/05/24 00:53:23;;;;;;;28.53;5.93;;;17.80;43.70;;;;;;5026817;28;20497;-62
2022/05/24 00:55:54;;;;;;;26.73;5.27;;;17.80;43.50;;;;;;5026941;28;20462;-60
2022/05/24 00:58:32;;;;;;;27.33;5.33;;;17.70;43.50;;;;;;5032947;28;20463;-61
2022/05/24 01:01:05;;;;;;;28.37;5.50;;;17.70;43.60;;;;;;5030073;28;20470;-61
2022/05/24 01:03:32;;;;;;;28.40;6.37;;;17.60;43.50;;;;;;5028195;28;20454;-63
2022/05/24 01:05:58;;;;;;;30.60;6.40;;;17.60;43.50;;;;;;5036170;28;20464;-62
2022/05/24 01:08:25;;;;;;;28.83;5.57;;;17.60;43.70;;;;;;5028912;28;20474;-61
2022/05/24 01:10:54;;;;;;;27.70;5.80;;;17.60;43.80;;;;;;5026840;28;20503;-62
2022/05/24 01:13:24;;;;;;;28.90;6.47;;;17.60;43.90;;;;;;5027393;28;20478;-61
2022/05/24 01:15:51;;;;;;;31.90;6.20;;;17.60;43.80;;;;;;5029777;28;20471;-61
2022/05/24 01:18:21;;;;;;;27.60;6.50;;;17.60;44.10;;;;;;5029410;28;21172;-62
2022/05/24 01:20:52;;;;;;;28.43;5.50;;;17.60;43.90;;;;;;5027380;28;20482;-60
2022/05/24 01:23:29;;;;;;;30.30;6.20;;;17.60;43.90;;;;;;5026604;28;20497;-61
2022/05/24 01:26:03;;;;;;;28.33;5.97;;;17.60;43.60;;;;;;5023860;28;20467;-61
2022/05/24 01:28:35;;;;;;;30.20;7.10;;;17.60;43.60;;;;;;5023796;28;20594;-62
2022/05/24 01:31:03;;;;;;;30.33;6.90;;;17.60;43.50;;;;;;5029179;28;20502;-60
2022/05/24 01:36:15;;;;;;;29.50;6.50;;;17.60;43.50;;;;;;5031341;28;20453;-62
2022/05/24 01:38:46;;;;;;;27.30;6.20;;;17.60;43.70;;;;;;5026366;28;20477;-61
2022/05/24 01:41:17;;;;;;;30.53;6.50;;;17.60;43.90;;;;;;5027721;28;21055;-60
2022/05/24 01:43:48;;;;;;;31.97;7.17;;;17.60;43.60;;;;;;5029603;28;20455;-62
2022/05/24 01:46:17;;;;;;;28.93;6.60;;;17.50;43.70;;;;;;5022970;28;20463;-62
2022/05/24 01:48:48;;;;;;;28.57;7.10;;;17.60;43.70;;;;;;5033045;28;20835;-62
2022/05/24 01:51:19;;;;;;;30.07;7.10;;;17.60;44.30;;;;;;5026459;28;20486;-64
2022/05/24 01:53:49;;;;;;;29.43;7.50;;;17.50;44.10;;;;;;5029211;28;20459;-61
2022/05/24 01:56:18;;;;;;;29.73;6.43;;;17.60;44.10;;;;;;5031145;28;20455;-61
2022/05/24 01:58:50;;;;;;;30.30;6.80;;;17.50;44.10;;;;;;5034464;28;20459;-61
2022/05/24 02:01:26;;;;;;;29.60;6.40;;;17.50;43.90;;;;;;5023590;28;20482;-61
2022/05/24 02:03:53;;;;;;;30.10;8.10;;;17.60;44.30;;;;;;5027398;28;20465;-60
2022/05/24 02:06:24;;;;;;;37.70;8.87;;;17.50;44.60;;;;;;5028031;28;20983;-61
2022/05/24 02:08:52;;;;;;;30.60;6.90;;;17.60;44.50;;;;;;5026610;28;20463;-60
2022/05/24 02:11:23;;;;;;;31.03;7.47;;;17.60;44.60;;;;;;5023243;28;20487;-61
2022/05/24 02:13:54;;;;;;;29.70;7.20;;;17.60;44.50;;;;;;5035140;28;20458;-60
2022/05/24 02:16:23;;;;;;;28.10;7.37;;;17.70;44.60;;;;;;5035560;28;20830;-59
2022/05/24 02:18:54;;;;;;;27.70;6.60;;;17.70;44.10;;;;;;5036346;28;20922;-62
2022/05/24 02:21:21;;;;;;;31.77;8.33;;;17.60;44.00;;;;;;5029056;28;20517;-61
2022/05/24 02:23:49;;;;;;;30.17;7.47;;;17.60;44.00;;;;;;5027741;28;20455;-60
2022/05/24 02:26:18;;;;;;;28.67;7.40;;;17.60;44.10;;;;;;5029275;28;20459;-60
2022/05/24 02:28:45;;;;;;;32.60;7.80;;;17.60;44.00;;;;;;5029198;28;20462;-61
2022/05/24 02:31:18;;;;;;;31.43;7.70;;;17.60;44.30;;;;;;5024942;28;20562;-59
2022/05/24 02:33:45;;;;;;;31.27;7.80;;;17.60;44.10;;;;;;5028704;28;20510;-60
2022/05/24 02:36:13;;;;;;;29.83;8.20;;;17.60;44.20;;;;;;5025965;28;20471;-60
2022/05/24 02:38:40;;;;;;;30.47;8.13;;;17.60;44.50;;;;;;5029016;28;20470;-63
2022/05/24 02:43:51;;;;;;;30.40;7.60;;;17.60;44.80;;;;;;5026524;28;20527;-61
2022/05/24 02:46:20;;;;;;;34.73;8.80;;;17.60;44.70;;;;;;5027926;28;20459;-64
2022/05/24 02:48:47;;;;;;;28.50;6.63;;;17.60;46.10;;;;;;5028624;28;21043;-60
2022/05/24 02:51:15;;;;;;;31.00;8.00;;;17.70;45.10;;;;;;5027555;28;20498;-60
2022/05/24 02:53:44;;;;;;;33.00;7.40;;;17.70;45.50;;;;;;5030927;28;20499;-61
2022/05/24 02:56:11;;;;;;;27.70;7.20;;;17.70;45.50;;;;;;5030344;28;20980;-62
2022/05/24 02:58:38;;;;;;;30.07;7.47;;;17.70;45.20;;;;;;5027590;28;20459;-60
2022/05/24 03:01:11;;;;;;;28.67;7.33;;;17.70;45.30;;;;;;5026396;28;20482;-59
2022/05/24 03:03:40;;;;;;;29.20;6.87;;;17.80;45.30;;;;;;5025620;28;20447;-63
2022/05/24 03:06:06;;;;;;;30.67;6.37;;;17.70;45.20;;;;;;5021378;28;20856;-63
2022/05/24 03:11:17;;;;;;;31.93;7.93;;;17.70;45.20;;;;;;5030657;28;20960;-67
2022/05/24 03:16:28;;;;;;;27.63;6.30;;;17.60;45.60;;;;;;5024352;28;20624;-63
2022/05/24 03:18:57;;;;;;;30.47;6.30;;;17.70;45.50;;;;;;5025551;28;20538;-59
2022/05/24 03:21:23;;;;;;;28.00;6.93;;;17.70;45.20;;;;;;5022055;28;21008;-61
2022/05/24 03:23:50;;;;;;;27.00;6.07;;;17.60;45.00;;;;;;5025709;28;20461;-59
2022/05/24 03:26:17;;;;;;;30.70;6.77;;;17.60;45.20;;;;;;5023332;28;20486;-60
2022/05/24 03:28:46;;;;;;;27.60;5.67;;;17.50;45.20;;;;;;5028536;28;20475;-62
2022/05/24 03:31:14;;;;;;;28.30;6.10;;;17.60;45.10;;;;;;5029802;28;20622;-60
2022/05/24 03:33:41;;;;;;;39.10;6.63;;;17.50;45.00;;;;;;5028239;28;20852;-62
2022/05/24 03:36:10;;;;;;;27.20;5.90;;;17.60;45.30;;;;;;5028155;28;20474;-57
2022/05/24 03:38:37;;;;;;;28.40;5.97;;;17.60;45.00;;;;;;5033205;28;20474;-62
2022/05/24 03:41:03;;;;;;;29.50;6.10;;;17.60;44.90;;;;;;5023306;28;20487;-61
2022/05/24 03:43:30;;;;;;;27.03;5.63;;;17.60;44.80;;;;;;5025793;28;21168;-60
2022/05/24 03:46:02;;;;;;;29.27;5.80;;;17.60;45.40;;;;;;5025892;28;20478;-59
2022/05/24 03:48:29;;;;;;;28.10;5.37;;;17.70;44.90;;;;;;5025544;28;20467;-59
2022/05/24 03:50:57;;;;;;;28.93;5.30;;;17.70;44.70;;;;;;5037118;28;20556;-61
2022/05/24 03:53:26;;;;;;;30.83;5.67;;;17.70;44.50;;;;;;5026383;28;21220;-61
2022/05/24 03:55:54;;;;;;;27.50;6.07;;;17.70;44.40;;;;;;5033409;28;20486;-60
2022/05/24 03:58:21;;;;;;;27.07;6.00;;;17.70;44.30;;;;;;5024586;28;20467;-61
2022/05/24 04:00:48;;;;;;;27.43;5.60;;;17.70;44.20;;;;;;5026784;28;20467;-62
2022/05/24 04:03:15;;;;;;;26.33;4.97;;;17.70;44.10;;;;;;5026670;28;20451;-63
2022/05/24 04:05:43;;;;;;;27.40;5.23;;;17.70;44.00;;;;;;5027538;28;20454;-63
2022/05/24 04:08:10;;;;;;;28.97;5.70;;;17.70;43.90;;;;;;5027893;28;20469;-63
2022/05/24 04:10:39;;;;;;;27.53;5.67;;;17.80;43.90;;;;;;5026967;28;20485;-60
2022/05/24 04:13:06;;;;;;;27.27;5.70;;;17.80;43.70;;;;;;5027509;28;20489;-63
2022/05/24 04:15:33;;;;;;;26.53;5.63;;;17.80;43.80;;;;;;5027857;28;20459;-62
2022/05/24 04:18:00;;;;;;;27.97;5.47;;;17.80;43.60;;;;;;5027120;28;20835;-62
2022/05/24 04:20:28;;;;;;;28.00;5.20;;;17.70;43.70;;;;;;5026732;28;20487;-62
2022/05/24 04:22:57;;;;;;;26.47;5.23;;;17.80;43.60;;;;;;5027474;28;20455;-62
2022/05/24 04:25:25;;;;;;;27.80;5.17;;;17.80;43.80;;;;;;5027851;28;21172;-62
2022/05/24 04:27:53;;;;;;;25.70;5.03;;;17.80;43.50;;;;;;5026945;28;20815;-62
2022/05/24 04:30:21;;;;;;;28.93;5.33;;;17.80;43.60;;;;;;5025906;28;20490;-62
2022/05/24 04:32:47;;;;;;;27.00;5.20;;;17.90;43.60;;;;;;5027425;28;20483;-59
2022/05/24 04:35:14;;;;;;;27.50;4.63;;;17.90;43.40;;;;;;5027555;28;20463;-60
2022/05/24 04:37:41;;;;;;;28.70;5.00;;;17.90;43.20;;;;;;5028328;28;20490;-61
2022/05/24 04:40:09;;;;;;;25.13;4.67;;;17.90;43.20;;;;;;5026058;28;20489;-62
2022/05/24 04:42:35;;;;;;;28.07;4.80;;;17.90;43.00;;;;;;5027271;28;20568;-63
2022/05/24 04:45:06;;;;;;;31.27;4.33;;;18.00;43.00;;;;;;5027549;28;20471;-63
2022/05/24 04:47:34;;;;;;;25.80;4.17;;;18.00;42.60;;;;;;5026734;28;20534;-62
2022/05/24 04:50:03;;;;;;;27.37;5.13;;;18.00;42.30;;;;;;5025970;28;20879;-65
2022/05/24 04:52:32;;;;;;;26.50;4.33;;;18.00;42.20;;;;;;5024897;28;20455;-62
2022/05/24 04:54:59;;;;;;;25.87;4.23;;;18.00;42.40;;;;;;5027865;28;20860;-62
2022/05/24 04:57:26;;;;;;;26.57;4.50;;;18.00;42.30;;;;;;5027265;28;20465;-63
2022/05/24 04:59:53;;;;;;;27.27;4.50;;;18.00;42.30;;;;;;5026947;28;20490;-62
2022/05/24 05:02:22;;;;;;;27.00;4.53;;;18.00;42.30;;;;;;5024992;28;20482;-64
2022/05/24 05:04:49;;;;;;;29.23;4.53;;;17.90;42.20;;;;;;5027405;28;20459;-62
2022/05/24 05:07:19;;;;;;;26.03;4.20;;;18.00;42.20;;;;;;5027083;28;20582;-64
2022/05/24 05:09:46;;;;;;;26.50;5.00;;;18.00;42.20;;;;;;5027660;28;21015;-63
2022/05/24 05:12:13;;;;;;;32.00;4.20;;;18.00;41.90;;;;;;5025869;28;20470;-62
2022/05/24 05:14:41;;;;;;;28.90;5.17;;;18.00;41.70;;;;;;5027193;28;20844;-62
2022/05/24 05:17:08;;;;;;;26.60;3.80;;;18.00;42.00;;;;;;5028390;28;20885;-62
2022/05/24 05:19:37;;;;;;;27.83;5.10;;;18.00;42.00;;;;;;5024090;28;20542;-63
2022/05/24 05:22:05;;;;;;;27.00;4.30;;;18.00;42.00;;;;;;5022599;28;20463;-61
2022/05/24 05:24:33;;;;;;;27.50;4.63;;;18.00;42.00;;;;;;5021915;28;20554;-63
2022/05/24 05:26:59;;;;;;;29.13;4.37;;;18.00;42.20;;;;;;5024393;28;20459;-62
2022/05/24 05:32:17;;;;;;;29.27;4.50;;;18.00;42.20;;;;;;5025022;28;20477;-63
2022/05/24 05:34:47;;;;;;;25.83;4.50;;;18.00;42.30;;;;;;5028992;28;20570;-62
2022/05/24 05:37:13;;;;;;;26.00;4.70;;;18.00;42.20;;;;;;5030229;28;20461;-63
2022/05/24 05:39:40;;;;;;;26.70;4.70;;;18.00;42.30;;;;;;5027485;28;20471;-61
2022/05/24 05:42:07;;;;;;;29.50;5.43;;;18.00;42.60;;;;;;5027321;28;20467;-62
2022/05/24 05:44:34;;;;;;;27.50;5.07;;;17.90;42.60;;;;;;5027259;28;20960;-63
2022/05/24 05:47:01;;;;;;;27.40;4.87;;;18.00;42.60;;;;;;5030080;28;20988;-65
2022/05/24 05:49:29;;;;;;;27.63;5.17;;;17.90;42.60;;;;;;5029021;28;20898;-61
2022/05/24 05:51:57;;;;;;;27.90;4.40;;;17.90;42.50;;;;;;5027958;28;21252;-63
2022/05/24 05:54:24;;;;;;;26.30;4.60;;;17.90;42.60;;;;;;5029085;28;20493;-61
2022/05/24 05:56:51;;;;;;;29.13;5.73;;;17.90;42.50;;;;;;5029839;28;20463;-62
2022/05/24 05:59:18;;;;;;;26.00;4.20;;;17.80;42.20;;;;;;5030291;28;20467;-63
2022/05/24 06:01:45;;;;;;;26.47;4.10;;;17.80;42.40;;;;;;5030186;28;20474;-63
2022/05/24 06:04:12;;;;;;;24.90;4.07;;;17.70;42.60;;;;;;5029451;28;20466;-60
2022/05/24 06:06:44;;;;;;;25.40;4.13;;;17.70;42.40;;;;;;5029713;28;20466;-61
2022/05/24 06:09:12;;;;;;;28.97;5.57;;;17.60;42.20;;;;;;5030596;28;20458;-61
2022/05/24 06:11:39;;;;;;;30.23;5.00;;;17.70;42.60;;;;;;5028099;28;20884;-62
2022/05/24 06:14:06;;;;;;;27.87;5.00;;;17.60;42.60;;;;;;5030539;28;20488;-60
2022/05/24 06:16:33;;;;;;;25.33;4.30;;;17.70;42.50;;;;;;5029700;28;21022;-61
2022/05/24 06:18:59;;;;;;;28.27;4.30;;;17.60;42.30;;;;;;5029820;28;20863;-63
2022/05/24 06:21:26;;;;;;;27.27;4.57;;;17.60;42.30;;;;;;5029973;28;20487;-62
2022/05/24 06:23:53;;;;;;;26.50;4.00;;;17.70;42.20;;;;;;5021119;28;20554;-61
2022/05/24 06:26:21;;;;;;;27.90;5.03;;;17.70;42.00;;;;;;5029928;28;20466;-61
2022/05/24 06:28:48;;;;;;;26.43;4.17;;;17.70;41.90;;;;;;5029323;28;20463;-63
2022/05/24 06:31:16;;;;;;;30.00;3.60;;;17.80;41.90;;;;;;5029946;28;20537;-61
2022/05/24 06:33:43;;;;;;;27.73;4.10;;;17.80;41.50;;;;;;5030272;28;20498;-62
2022/05/24 06:36:10;;;;;;;24.70;3.60;;;17.80;41.80;;;;;;5028893;28;20465;-63
2022/05/24 06:38:38;;;;;;;25.40;3.60;;;17.80;41.10;;;;;;5028784;28;20466;-61
2022/05/24 06:41:05;;;;;;;25.93;3.40;;;17.80;41.20;;;;;;5029081;28;20516;-62
2022/05/24 06:43:34;;;;;;;27.80;3.43;;;17.80;41.00;;;;;;5029473;28;20969;-62
2022/05/24 06:46:04;;;;;;;26.60;3.03;;;17.70;40.50;;;;;;5028933;28;21054;-62
2022/05/24 06:48:31;;;;;;;26.13;3.40;;;17.70;40.40;;;;;;5027010;28;20904;-62
2022/05/24 06:50:58;;;;;;;25.57;4.00;;;17.60;40.30;;;;;;5054910;22;20509;-65
2022/05/24 06:53:24;;;;;;;27.27;3.27;;;17.70;40.40;;;;;;5048866;28;20489;-65
2022/05/24 06:55:51;;;;;;;26.27;3.53;;;17.60;39.90;;;;;;5041700;28;20462;-65
2022/05/24 06:58:18;;;;;;;26.90;3.60;;;17.60;40.00;;;;;;5048037;28;20469;-65
2022/05/24 07:03:31;;;;;;;27.60;3.90;;;17.50;39.80;;;;;;5043595;28;20458;-65
2022/05/24 07:05:58;;;;;;;26.47;2.70;;;17.50;39.90;;;;;;5048359;28;20453;-65
2022/05/24 07:08:24;;;;;;;27.33;3.63;;;17.50;40.00;;;;;;5044844;28;21099;-64
2022/05/24 07:10:51;;;;;;;25.53;4.07;;;17.50;39.80;;;;;;5032563;28;20482;-64
2022/05/24 07:13:20;;;;;;;28.70;3.40;;;17.40;39.70;;;;;;5047048;28;20474;-64
2022/05/24 07:15:50;;;;;;;26.70;3.53;;;17.40;39.80;;;;;;5045933;28;20989;-64
2022/05/24 07:18:17;;;;;;;25.20;2.60;;;17.40;39.40;;;;;;5041658;28;20458;-65
2022/05/24 07:20:44;;;;;;;26.50;2.70;;;17.40;39.40;;;;;;5040060;28;20884;-65
2022/05/24 07:23:14;;;;;;;29.63;3.77;;;17.40;39.20;;;;;;5041625;28;20457;-65
2022/05/24 07:25:42;;;;;;;26.83;3.00;;;17.40;39.10;;;;;;5046204;28;20823;-64
2022/05/24 07:28:10;;;;;;;26.90;3.10;;;17.40;39.10;;;;;;5043243;28;20450;-64
2022/05/24 07:30:37;;;;;;;25.93;3.00;;;17.40;39.20;;;;;;5041257;28;20473;-61
2022/05/24 07:33:06;;;;;;;25.27;2.97;;;17.40;39.00;;;;;;5047123;28;20462;-63
2022/05/24 07:35:32;;;;;;;26.70;3.40;;;17.30;38.80;;;;;;5047916;28;20846;-64
2022/05/24 07:37:59;;;;;;;26.00;2.80;;;17.30;39.10;;;;;;5035915;28;21194;-64
2022/05/24 07:46:12;;;;;;;26.30;2.97;;;17.20;39.00;;;;;;4973766;28;20528;-65
2022/05/24 07:48:41;;;;;;;26.03;3.10;;;17.30;39.00;;;;;;5007485;28;20459;-64
2022/05/24 07:51:08;;;;;;;28.20;3.13;;;17.30;38.70;;;;;;5039862;28;20482;-64
2022/05/24 07:53:35;;;;;;;27.70;3.30;;;17.40;39.10;;;;;;5046680;28;20482;-65
2022/05/24 07:56:03;;;;;;;26.70;2.47;;;18.80;39.30;;;;;;5047605;28;21102;-64
2022/05/24 07:58:30;;;;;;;26.27;2.00;;;23.00;29.30;;;;;;5047845;28;20466;-64
2022/05/24 08:00:58;;;;;;;27.53;2.83;;;26.00;17.40;;;;;;5047207;28;20474;-64
2022/05/24 08:03:25;;;;;;;27.10;2.53;;;27.10;14.40;;;;;;5044833;28;20458;-63
2022/05/24 08:05:53;;;;;;;26.60;2.40;;;26.50;13.50;;;;;;5043360;28;20999;-64
2022/05/24 08:08:20;;;;;;;27.20;2.50;;;25.40;15.20;;;;;;5044237;28;20467;-64
2022/05/24 08:10:47;;;;;;;26.10;2.70;;;24.60;17.30;;;;;;5032666;28;20489;-64
2022/05/24 08:13:16;;;;;;;25.30;2.30;;;24.40;18.10;;;;;;5036427;28;20455;-64
2022/05/24 08:15:43;;;;;;;25.50;2.30;;;24.50;18.50;;;;;;5043684;28;20458;-64
2022/05/24 08:18:10;;;;;;;24.80;2.10;;;24.50;17.40;;;;;;5047094;28;20462;-64
2022/05/24 08:20:38;;;;;;;25.20;2.67;;;24.20;18.00;;;;;;5047786;28;20473;-62
2022/05/24 08:23:07;;;;;;;26.60;2.90;;;23.70;17.50;;;;;;5042450;28;20471;-65
2022/05/24 08:25:34;;;;;;;26.10;2.80;;;23.30;18.70;;;;;;5033677;28;20462;-65
2022/05/24 08:28:02;;;;;;;27.43;2.63;;;22.70;19.20;;;;;;5042887;28;20462;-64
2022/05/24 08:30:30;;;;;;;25.17;2.40;;;22.10;21.30;;;;;;5046231;28;20496;-64
2022/05/24 08:32:57;;;;;;;25.30;2.67;;;21.60;22.90;;;;;;5049847;28;20830;-63
2022/05/24 08:35:25;;;;;;;26.47;2.77;;;21.10;24.40;;;;;;5038994;28;20505;-64
2022/05/24 08:37:52;;;;;;;25.93;3.00;;;20.80;26.00;;;;;;5046855;28;20470;-65
2022/05/24 08:40:22;;;;;;;26.20;2.93;;;20.50;27.30;;;;;;5041709;28;20464;-65
2022/05/24 08:43:12;;;;;;;29.20;3.23;;;20.30;28.30;;;;;;5045556;28;20513;-65
2022/05/24 08:48:32;;;;;;;26.90;3.17;;;20.00;29.40;;;;;;5042985;28;20440;-65
2022/05/24 08:51:02;;;;;;;24.73;2.90;;;19.70;30.50;;;;;;5038128;28;20489;-65
2022/05/24 08:53:34;;;;;;;27.07;3.07;;;19.50;31.10;;;;;;5041428;28;20948;-65
2022/05/24 08:56:07;;;;;;;25.50;2.97;;;19.40;31.80;;;;;;5039946;28;20468;-65
2022/05/24 08:58:36;;;;;;;25.40;3.43;;;19.20;32.20;;;;;;5045162;28;20465;-65
2022/05/24 09:01:06;;;;;;;25.37;2.90;;;19.20;32.90;;;;;;5040702;28;20869;-64
2022/05/24 09:03:39;;;;;;;25.13;3.30;;;19.20;33.00;;;;;;5042297;28;20447;-64
2022/05/24 09:06:10;;;;;;;26.03;4.03;;;19.20;33.30;;;;;;5050679;28;20469;-65
2022/05/24 09:08:47;;;;;;;25.60;3.40;;;19.10;33.70;;;;;;5050819;28;20537;-65
2022/05/24 09:11:23;;;;;;;27.13;2.33;;;19.10;34.10;;;;;;5045164;28;20535;-63
2022/05/24 09:14:21;;;;;;;25.87;1.80;;;19.10;32.50;;;;;;5047825;28;20486;-65
2022/05/24 09:16:57;;;;;;;26.13;1.73;;;18.80;30.20;;;;;;5050042;28;20469;-64
2022/05/24 09:19:26;;;;;;;26.90;1.93;;;18.50;31.40;;;;;;5047468;28;20453;-63
2022/05/24 09:21:53;;;;;;;26.17;1.80;;;18.40;31.50;;;;;;5036588;28;20478;-64
2022/05/24 09:24:31;;;;;;;26.60;2.23;;;18.30;32.00;;;;;;5054804;28;20454;-65
2022/05/24 09:27:11;;;;;;;25.10;1.83;;;18.30;32.10;;;;;;5037436;28;20498;-65
2022/05/24 09:29:54;;;;;;;25.30;2.03;;;18.40;32.30;;;;;;5049907;28;20542;-64
2022/05/24 09:32:23;;;;;;;27.60;1.80;;;18.40;32.10;;;;;;5045893;28;21049;-65
2022/05/24 09:35:03;;;;;;;25.53;2.00;;;18.40;31.60;;;;;;5036313;28;20474;-65
2022/05/24 09:37:30;;;;;;;30.73;2.00;;;18.40;31.60;;;;;;5042830;28;20458;-64
2022/05/24 09:39:59;;;;;;;27.70;1.97;;;18.40;31.50;;;;;;5049342;28;20461;-64
2022/05/24 09:42:30;;;;;;;25.40;2.00;;;18.40;31.90;;;;;;5039319;28;21051;-64
2022/05/24 09:45:01;;;;;;;25.43;2.30;;;18.50;31.50;;;;;;5039461;28;20542;-65
2022/05/24 09:47:32;;;;;;;26.70;2.37;;;18.50;31.30;;;;;;5036678;28;20465;-65
2022/05/24 09:50:22;;;;;;;26.87;1.70;;;18.70;31.40;;;;;;5050854;28;20458;-64
2022/05/24 09:53:13;;;;;;;26.40;1.60;;;18.80;30.80;;;;;;5049510;28;20492;-64
2022/05/24 09:55:46;;;;;;;25.10;1.50;;;19.00;30.40;;;;;;5046893;28;20485;-63
2022/05/24 09:58:20;;;;;;;25.20;2.00;;;19.10;29.70;;;;;;5051298;28;20489;-64
2022/05/24 10:00:53;;;;;;;24.37;1.67;;;19.40;29.50;;;;;;5047957;28;20481;-64
2022/05/24 10:03:25;;;;;;;25.10;1.70;;;19.80;28.60;;;;;;5049871;28;20457;-65
2022/05/24 10:06:20;;;;;;;25.27;1.33;;;20.30;27.50;;;;;;5034316;28;20504;-64
2022/05/24 10:08:50;;;;;;;25.63;1.30;;;20.50;26.00;;;;;;5036859;28;20469;-64
2022/05/24 10:11:25;;;;;;;24.97;1.50;;;20.60;25.40;;;;;;5049614;28;20483;-64
2022/05/24 10:14:13;;;;;;;25.90;2.13;;;20.70;24.60;;;;;;5046830;28;20464;-64
2022/05/24 10:16:47;;;;;;;24.97;1.40;;;20.90;24.40;;;;;;5041928;28;20458;-64
2022/05/24 10:19:36;;;;;;;25.30;1.47;;;21.20;24.20;;;;;;5040320;28;20493;-64
2022/05/24 10:22:09;;;;;;;24.47;1.60;;;21.50;23.10;;;;;;5044307;28;20479;-65
2022/05/24 10:24:50;;;;;;;27.07;1.50;;;21.90;23.20;;;;;;5049549;28;20450;-65
2022/05/24 10:27:27;;;;;;;24.90;1.27;;;22.40;21.10;;;;;;5043448;28;20926;-65
2022/05/24 10:30:01;;;;;;;25.47;1.60;;;22.60;20.50;;;;;;5037865;28;20457;-65
2022/05/24 10:38:32;;;;;;;24.60;1.50;;;23.30;18.80;;;;;;5043838;28;20478;-66
2022/05/24 10:41:08;;;;;;;25.00;1.70;;;23.30;18.90;;;;;;5047295;28;21006;-65
2022/05/24 10:43:47;;;;;;;24.80;2.30;;;23.20;17.90;;;;;;5044561;28;20476;-65
2022/05/24 10:46:17;;;;;;;24.80;1.33;;;23.10;19.10;;;;;;5044544;28;20457;-64
2022/05/24 10:48:48;;;;;;;26.00;1.60;;;22.70;16.90;;;;;;5043589;28;20462;-65
2022/05/24 10:51:24;;;;;;;25.37;2.10;;;22.40;17.70;;;;;;5043690;28;20532;-63
2022/05/24 10:53:55;;;;;;;25.57;1.60;;;21.90;17.50;;;;;;5047238;28;20466;-64
2022/05/24 10:56:30;;;;;;;25.30;2.20;;;21.60;18.40;;;;;;5046726;28;20477;-65
2022/05/24 10:59:04;;;;;;;27.83;1.73;;;21.30;18.40;;;;;;5042527;28;20998;-67
2022/05/24 11:01:38;;;;;;;25.37;1.70;;;21.10;19.30;;;;;;5044597;28;20478;-68
2022/05/24 11:04:10;;;;;;;26.30;2.20;;;20.90;18.40;;;;;;5039869;28;20821;-68
2022/05/24 11:06:39;;;;;;;26.03;1.80;;;20.80;18.70;;;;;;5041800;28;21212;-66
2022/05/24 11:09:11;;;;;;;26.13;1.73;;;20.60;18.40;;;;;;5040506;28;20467;-69
2022/05/24 11:11:47;;;;;;;27.70;3.90;;;20.50;20.50;;;;;;5042483;28;20513;-68
2022/05/24 11:14:21;;;;;;;25.80;1.60;;;20.30;21.30;;;;;;5044803;28;20465;-69
2022/05/24 11:16:52;;;;;;;26.90;2.37;;;20.20;20.10;;;;;;5042950;28;20469;-70
2022/05/24 11:19:22;;;;;;;25.60;1.90;;;20.00;20.00;;;;;;5040275;28;21198;-69
2022/05/24 11:21:53;;;;;;;26.43;2.00;;;19.90;20.70;;;;;;5048548;28;20489;-68
2022/05/24 11:24:25;;;;;;;26.03;2.10;;;20.00;19.80;;;;;;5045817;28;20523;-69
2022/05/24 11:26:56;;;;;;;27.50;2.00;;;19.80;20.30;;;;;;5046681;28;21140;-68
2022/05/24 11:29:28;;;;;;;27.30;1.90;;;19.90;20.90;;;;;;5044969;28;20476;-71
2022/05/24 11:32:03;;;;;;;25.33;1.70;;;20.00;19.60;;;;;;5041725;28;20487;-62
2022/05/24 11:34:33;;;;;;;26.10;1.67;;;20.10;20.00;;;;;;5042319;28;20472;-63
2022/05/24 11:37:05;;;;;;;26.57;2.50;;;20.30;20.50;;;;;;5045488;28;20465;-63
2022/05/24 11:39:35;;;;;;;26.33;1.70;;;20.30;19.80;;;;;;5045959;28;20454;-63
2022/05/24 11:42:45;;;;;;;25.50;1.37;;;20.40;19.00;;;;;;5035926;28;20482;-64
2022/05/24 11:45:55;;;;;;;25.77;1.53;;;20.40;18.60;;;;;;4983507;28;20467;-59
2022/05/24 11:48:38;;;;;;;26.93;1.90;;;20.40;18.80;;;;;;4980463;28;20526;-58
2022/05/24 11:51:32;;;;;;;30.33;1.77;;;20.40;18.80;;;;;;5036565;28;20508;-61
2022/05/24 11:54:00;;;;;;;25.80;1.90;;;20.40;18.80;;;;;;5043929;28;20481;-60
2022/05/24 11:56:28;;;;;;;25.90;2.20;;;20.40;18.60;;;;;;5043288;28;20536;-60
2022/05/24 11:59:01;;;;;;;26.43;1.80;;;20.60;18.40;;;;;;5040836;28;20494;-61
2022/05/24 12:01:50;;;;;;;26.10;1.87;;;20.90;18.20;;;;;;5040393;28;20493;-60
2022/05/24 12:10:41;;;;;;;25.73;1.40;;;22.20;16.30;;;;;;5047143;28;20461;-59
2022/05/24 12:13:39;;;;;;;26.90;1.60;;;22.50;14.90;;;;;;5043842;28;20519;-60
2022/05/24 12:16:22;;;;;;;26.20;2.03;;;22.70;14.80;;;;;;5039070;28;20555;-61
2022/05/24 12:19:02;;;;;;;25.73;1.90;;;22.70;14.20;;;;;;5042672;28;21007;-60
2022/05/24 12:22:02;;;;;;;26.60;2.40;;;22.90;14.70;;;;;;5039612;28;20486;-61
2022/05/24 12:24:54;;;;;;;25.83;1.90;;;23.10;14.00;;;;;;5024988;28;21003;-61
2022/05/24 12:27:47;;;;;;;26.20;1.70;;;23.40;13.40;;;;;;5042583;28;20469;-61
2022/05/24 12:30:40;;;;;;;25.20;1.90;;;23.50;14.10;;;;;;5044826;28;20454;-61
2022/05/24 12:33:33;;;;;;;25.67;1.63;;;23.70;13.10;;;;;;5042668;28;20966;-61
2022/05/24 12:36:20;;;;;;;25.20;1.83;;;23.80;12.10;;;;;;5043216;28;20485;-61
2022/05/24 12:38:50;;;;;;;26.07;2.80;;;23.80;12.60;;;;;;5044290;28;20473;-60
2022/05/24 12:41:25;;;;;;;26.00;2.23;;;23.60;12.90;;;;;;5048367;28;20482;-61
2022/05/24 12:43:56;;;;;;;26.67;1.70;;;23.50;12.60;;;;;;5049758;28;20562;-61
2022/05/24 12:46:27;;;;;;;25.40;1.70;;;23.50;11.60;;;;;;5047513;28;20559;-61
2022/05/24 12:49:00;;;;;;;25.33;1.90;;;23.40;11.60;;;;;;5044252;28;20466;-62
2022/05/24 12:51:27;;;;;;;25.57;2.53;;;23.40;12.30;;;;;;5052170;22;20512;-66
2022/05/24 12:53:55;;;;;;;25.47;2.00;;;23.20;12.20;;;;;;4991966;28;21123;-65
2022/05/24 12:56:24;;;;;;;25.57;1.80;;;23.10;12.00;;;;;;4991493;28;20878;-65
2022/05/24 12:58:52;;;;;;;25.20;1.80;;;23.00;12.30;;;;;;4991463;28;21085;-65
2022/05/24 13:01:23;;;;;;;26.83;1.73;;;22.90;12.60;;;;;;5000533;28;21005;-65
2022/05/24 13:04:08;;;;;;;25.60;1.87;;;22.80;12.50;;;;;;5010608;28;20440;-65
2022/05/24 13:06:37;;;;;;;25.37;1.80;;;22.70;13.80;;;;;;5010393;28;20550;-65
2022/05/24 13:09:27;;;;;;;25.67;1.77;;;22.70;14.70;;;;;;5011857;28;20464;-65
2022/05/24 13:11:56;;;;;;;26.00;1.97;;;22.80;15.40;;;;;;5007224;28;20841;-65
2022/05/24 13:14:45;;;;;;;26.00;2.00;;;22.90;15.70;;;;;;5011624;28;20825;-65
2022/05/24 13:17:17;;;;;;;25.43;1.80;;;22.90;15.30;;;;;;5010440;28;20479;-65
2022/05/24 13:19:53;;;;;;;24.73;1.73;;;22.80;14.90;;;;;;5012026;28;20958;-65
2022/05/24 13:22:21;;;;;;;25.27;1.70;;;22.60;16.60;;;;;;5011074;28;20463;-65
2022/05/24 13:24:55;;;;;;;26.37;2.23;;;22.50;15.70;;;;;;5011672;28;20481;-65
2022/05/24 13:27:23;;;;;;;25.60;2.53;;;22.40;15.80;;;;;;5010391;28;20475;-65
2022/05/24 13:35:27;;;;;;;25.47;1.80;;;22.10;16.70;;;;;;5011284;28;20979;-65
2022/05/24 13:37:56;;;;;;;26.63;2.10;;;22.00;16.30;;;;;;5011056;28;20563;-65